createdAt,value
2023-05-22T00:00:13.840Z,61.09
2023-05-22T00:00:46.260Z,55.98
2023-05-22T00:01:18.766Z,16.95
2023-05-22T00:01:51.387Z,329.05
2023-05-22T00:02:23.839Z,43.98
2023-05-22T00:02:56.426Z,24.28
2023-05-22T00:03:28.912Z,85.18
2023-05-22T00:04:01.323Z,56.05
2023-05-22T00:04:33.872Z,37.13
2023-05-22T00:05:06.402Z,327.02
2023-05-22T00:05:38.915Z,12.60
2023-05-22T00:06:11.357Z,143.15
2023-05-22T00:06:43.952Z,65.17
2023-05-22T00:07:16.436Z,344.48
2023-05-22T00:07:48.994Z,174.05
2023-05-22T00:08:21.509Z,93.45
2023-05-22T00:08:54.615Z,357.44
2023-05-22T00:09:27.159Z,42.96
2023-05-22T00:09:59.608Z,327.61
2023-05-22T00:10:32.125Z,48.28
2023-05-22T00:11:04.652Z,319.72
2023-05-22T00:11:37.173Z,348.90
2023-05-22T00:12:09.679Z,344.35
2023-05-22T00:12:42.190Z,22.64
2023-05-22T00:13:14.656Z,81.38
2023-05-22T00:13:47.191Z,41.44
2023-05-22T00:14:19.750Z,61.48
2023-05-22T00:14:52.242Z,55.74
2023-05-22T00:15:24.785Z,110.96
2023-05-22T00:15:57.257Z,71.65
2023-05-22T00:16:29.913Z,60.81
2023-05-22T00:17:02.451Z,59.33
2023-05-22T00:17:34.946Z,56.32
2023-05-22T00:18:07.346Z,53.43
2023-05-22T00:18:39.794Z,100.70
2023-05-22T00:19:12.252Z,29.11
2023-05-22T00:19:45.607Z,50.94
2023-05-22T00:20:18.105Z,55.00
2023-05-22T00:20:50.559Z,66.74
2023-05-22T00:21:23.037Z,47.96
2023-05-22T00:21:55.558Z,47.16
2023-05-22T00:22:28.049Z,66.01
2023-05-22T00:23:00.561Z,75.00
2023-05-22T00:23:33.058Z,75.00
2023-05-22T00:24:05.547Z,63.97
2023-05-22T00:24:37.987Z,30.00
2023-05-22T00:25:10.502Z,67.13
2023-05-22T00:25:42.997Z,239.26
2023-05-22T00:26:15.457Z,193.57
2023-05-22T00:26:47.923Z,221.10
2023-05-22T00:27:20.399Z,257.66
2023-05-22T00:27:52.902Z,232.48
2023-05-22T00:28:25.373Z,209.03
2023-05-22T00:28:57.839Z,348.23
2023-05-22T00:29:30.324Z,203.38
2023-05-22T00:30:02.807Z,222.24
2023-05-22T00:30:35.317Z,252.27
2023-05-22T00:31:07.822Z,220.37
2023-05-22T00:31:40.316Z,203.19
2023-05-22T00:32:12.787Z,218.85
2023-05-22T00:32:45.321Z,201.22
2023-05-22T00:33:17.770Z,214.25
2023-05-22T00:33:50.347Z,235.51
2023-05-22T00:34:22.787Z,193.04
2023-05-22T00:34:55.240Z,129.23
2023-05-22T00:35:27.801Z,187.26
2023-05-22T00:36:00.283Z,203.28
2023-05-22T00:36:32.826Z,216.99
2023-05-22T00:37:05.341Z,166.19
2023-05-22T00:37:37.855Z,210.81
2023-05-22T00:38:10.318Z,211.41
2023-05-22T00:38:42.779Z,205.71
2023-05-22T00:39:15.206Z,236.32
2023-05-22T00:39:47.669Z,250.51
2023-05-22T00:40:20.125Z,276.73
2023-05-22T00:40:52.646Z,242.78
2023-05-22T00:41:25.092Z,179.14
2023-05-22T00:41:57.615Z,180.65
2023-05-22T00:42:30.094Z,111.47
2023-05-22T00:43:02.529Z,25.82
2023-05-22T00:43:35.004Z,195.10
2023-05-22T00:44:07.458Z,241.00
2023-05-22T00:44:39.946Z,212.33
2023-05-22T00:45:12.413Z,197.67
2023-05-22T00:45:44.880Z,30.00
2023-05-22T00:46:17.450Z,180.64
2023-05-22T00:46:49.897Z,233.94
2023-05-22T00:47:22.343Z,214.66
2023-05-22T00:47:54.807Z,209.12
2023-05-22T00:48:27.276Z,284.83
2023-05-22T00:48:59.758Z,235.30
2023-05-22T00:49:32.343Z,255.00
2023-05-22T00:50:04.825Z,246.78
2023-05-22T00:50:37.490Z,92.01
2023-05-22T00:51:09.833Z,207.36
2023-05-22T00:51:42.375Z,324.66
2023-05-22T00:52:14.822Z,47.10
2023-05-22T00:52:47.287Z,202.54
2023-05-22T00:53:19.882Z,202.63
2023-05-22T00:53:52.395Z,203.28
2023-05-22T00:54:24.983Z,202.63
2023-05-22T00:54:57.575Z,205.34
2023-05-22T00:55:30.049Z,207.15
2023-05-22T00:56:02.559Z,206.89
2023-05-22T00:56:35.065Z,201.88
2023-05-22T00:57:07.522Z,202.63
2023-05-22T00:57:40.044Z,202.63
2023-05-22T00:58:12.479Z,203.28
2023-05-22T00:58:44.921Z,203.38
2023-05-22T00:59:17.416Z,204.12
2023-05-22T00:59:49.914Z,207.99
2023-05-22T01:00:22.511Z,201.88
2023-05-22T01:00:55.031Z,203.28
2023-05-22T01:01:27.488Z,203.28
2023-05-22T01:01:59.987Z,199.15
2023-05-22T01:02:32.594Z,119.46
2023-05-22T01:03:05.037Z,202.46
2023-05-22T01:03:37.627Z,201.97
2023-05-22T01:04:10.057Z,194.65
2023-05-22T01:04:42.498Z,91.02
2023-05-22T01:05:14.939Z,148.98
2023-05-22T01:05:47.452Z,182.14
2023-05-22T01:06:19.984Z,179.14
2023-05-22T01:06:52.452Z,179.13
2023-05-22T01:07:24.990Z,180.64
2023-05-22T01:07:57.502Z,180.65
2023-05-22T01:08:30.053Z,177.62
2023-05-22T01:09:02.497Z,177.64
2023-05-22T01:09:34.981Z,180.64
2023-05-22T01:10:07.501Z,166.27
2023-05-22T01:10:40.226Z,180.64
2023-05-22T01:11:12.565Z,180.64
2023-05-22T01:11:45.085Z,180.64
2023-05-22T01:12:17.522Z,179.14
2023-05-22T01:12:50.032Z,179.14
2023-05-22T01:13:22.541Z,180.64
2023-05-22T01:13:55.109Z,201.97
2023-05-22T01:14:27.543Z,201.88
2023-05-22T01:15:00.133Z,210.00
2023-05-22T01:15:32.617Z,203.28
2023-05-22T01:16:05.116Z,202.63
2023-05-22T01:16:37.794Z,203.93
2023-05-22T01:17:10.250Z,194.20
2023-05-22T01:17:42.796Z,194.86
2023-05-22T01:18:15.205Z,202.63
2023-05-22T01:18:47.732Z,202.63
2023-05-22T01:19:20.180Z,231.93
2023-05-22T01:19:52.616Z,339.88
2023-05-22T01:20:25.080Z,192.74
2023-05-22T01:20:57.538Z,209.88
2023-05-22T01:21:30.067Z,202.54
2023-05-22T01:22:02.598Z,201.97
2023-05-22T01:22:35.093Z,202.72
2023-05-22T01:23:07.652Z,203.93
2023-05-22T01:23:40.100Z,203.28
2023-05-22T01:24:12.655Z,202.63
2023-05-22T01:24:45.121Z,201.97
2023-05-22T01:25:17.607Z,203.19
2023-05-22T01:25:50.116Z,209.16
2023-05-22T01:26:22.584Z,202.72
2023-05-22T01:26:55.033Z,210.00
2023-05-22T01:27:27.501Z,202.72
2023-05-22T01:28:00.131Z,202.72
2023-05-22T01:28:32.559Z,202.54
2023-05-22T01:29:05.021Z,203.28
2023-05-22T01:29:37.547Z,204.57
2023-05-22T01:30:10.008Z,202.72
2023-05-22T01:30:42.459Z,203.28
2023-05-22T01:31:14.981Z,202.63
2023-05-22T01:31:47.443Z,202.06
2023-05-22T01:32:19.897Z,202.06
2023-05-22T01:32:52.411Z,202.63
2023-05-22T01:33:25.027Z,202.63
2023-05-22T01:33:57.603Z,210.00
2023-05-22T01:34:30.962Z,201.79
2023-05-22T01:35:03.528Z,200.96
2023-05-22T01:35:36.041Z,202.63
2023-05-22T01:36:08.458Z,203.28
2023-05-22T01:36:40.897Z,201.88
2023-05-22T01:37:13.359Z,201.88
2023-05-22T01:37:45.860Z,201.97
2023-05-22T01:38:18.406Z,202.63
2023-05-22T01:38:50.901Z,203.93
2023-05-22T01:39:23.376Z,202.81
2023-05-22T01:39:55.902Z,210.00
2023-05-22T01:40:28.366Z,202.72
2023-05-22T01:41:00.860Z,210.00
2023-05-22T01:41:33.337Z,203.28
2023-05-22T01:42:05.788Z,202.72
2023-05-22T01:42:38.302Z,202.63
2023-05-22T01:43:10.798Z,202.72
2023-05-22T01:43:43.424Z,203.28
2023-05-22T01:44:15.946Z,203.28
2023-05-22T01:44:48.496Z,210.00
2023-05-22T01:45:20.996Z,202.63
2023-05-22T01:45:53.541Z,202.63
2023-05-22T01:46:26.052Z,202.63
2023-05-22T01:46:58.594Z,204.03
2023-05-22T01:47:31.200Z,202.63
2023-05-22T01:48:03.729Z,202.54
2023-05-22T01:48:36.197Z,210.00
2023-05-22T01:49:08.689Z,203.28
2023-05-22T01:49:41.177Z,203.28
2023-05-22T01:50:13.685Z,203.28
2023-05-22T01:50:46.169Z,202.63
2023-05-22T01:51:18.618Z,201.97
2023-05-22T01:51:51.068Z,201.88
2023-05-22T01:52:23.590Z,203.38
2023-05-22T01:52:56.097Z,202.81
2023-05-22T01:53:28.591Z,202.72
2023-05-22T01:54:01.097Z,202.63
2023-05-22T01:54:33.616Z,210.00
2023-05-22T01:55:06.091Z,202.54
2023-05-22T01:55:38.554Z,210.00
2023-05-22T01:56:11.047Z,203.93
2023-05-22T01:56:43.562Z,202.72
2023-05-22T01:57:17.247Z,202.63
2023-05-22T01:57:52.765Z,202.72
2023-05-22T01:58:25.253Z,205.61
2023-05-22T01:58:57.733Z,203.93
2023-05-22T01:59:30.445Z,203.93
2023-05-22T02:00:02.983Z,202.54
2023-05-22T02:00:35.478Z,201.88
2023-05-22T02:01:07.964Z,202.63
2023-05-22T02:01:40.491Z,203.28
2023-05-22T02:02:13.056Z,210.00
2023-05-22T02:02:45.537Z,203.28
2023-05-22T02:03:18.101Z,203.28
2023-05-22T02:03:50.448Z,112.91
2023-05-22T02:04:22.923Z,75.00
2023-05-22T02:04:55.394Z,75.00
2023-05-22T02:05:27.846Z,75.00
2023-05-22T02:06:00.308Z,75.00
2023-05-22T02:06:32.780Z,75.00
2023-05-22T02:07:05.341Z,75.00
2023-05-22T02:07:37.811Z,75.00
2023-05-22T02:08:10.355Z,173.24
2023-05-22T02:08:42.852Z,194.36
2023-05-22T02:09:15.399Z,177.63
2023-05-22T02:09:48.949Z,179.13
2023-05-22T02:10:21.432Z,183.64
2023-05-22T02:10:53.936Z,180.64
2023-05-22T02:11:26.467Z,180.64
2023-05-22T02:11:58.922Z,180.65
2023-05-22T02:12:31.397Z,183.69
2023-05-22T02:13:03.950Z,169.10
2023-05-22T02:13:36.446Z,180.64
2023-05-22T02:14:08.884Z,167.62
2023-05-22T02:14:41.346Z,180.64
2023-05-22T02:15:13.830Z,179.14
2023-05-22T02:15:46.389Z,180.64
2023-05-22T02:16:18.861Z,180.64
2023-05-22T02:16:51.285Z,179.14
2023-05-22T02:17:23.847Z,179.14
2023-05-22T02:17:56.368Z,179.14
2023-05-22T02:18:28.783Z,179.14
2023-05-22T02:19:01.300Z,180.64
2023-05-22T02:19:33.766Z,182.16
2023-05-22T02:20:06.171Z,179.14
2023-05-22T02:20:38.824Z,179.14
2023-05-22T02:21:11.135Z,180.64
2023-05-22T02:21:43.579Z,179.14
2023-05-22T02:22:16.113Z,166.36
2023-05-22T02:22:48.559Z,180.64
2023-05-22T02:23:21.023Z,164.95
2023-05-22T02:23:53.479Z,183.65
2023-05-22T02:24:25.960Z,171.80
2023-05-22T02:24:58.452Z,180.64
2023-05-22T02:25:30.886Z,179.14
2023-05-22T02:26:03.416Z,180.65
2023-05-22T02:26:35.871Z,231.22
2023-05-22T02:27:08.334Z,255.00
2023-05-22T02:27:40.806Z,255.00
2023-05-22T02:28:13.298Z,243.55
2023-05-22T02:28:45.737Z,179.14
2023-05-22T02:29:18.224Z,179.14
2023-05-22T02:29:50.728Z,196.59
2023-05-22T02:30:23.208Z,202.72
2023-05-22T02:30:55.721Z,203.28
2023-05-22T02:31:28.239Z,210.00
2023-05-22T02:32:00.699Z,202.63
2023-05-22T02:32:33.204Z,210.00
2023-05-22T02:33:05.734Z,202.63
2023-05-22T02:33:38.194Z,202.54
2023-05-22T02:34:10.764Z,202.63
2023-05-22T02:34:43.260Z,202.63
2023-05-22T02:35:15.770Z,203.28
2023-05-22T02:35:48.268Z,202.63
2023-05-22T02:36:20.721Z,205.71
2023-05-22T02:36:53.203Z,201.88
2023-05-22T02:37:25.667Z,210.00
2023-05-22T02:37:58.157Z,203.28
2023-05-22T02:38:30.614Z,210.00
2023-05-22T02:39:03.174Z,202.63
2023-05-22T02:39:35.651Z,203.93
2023-05-22T02:40:08.099Z,204.03
2023-05-22T02:40:40.775Z,202.54
2023-05-22T02:41:13.451Z,202.54
2023-05-22T02:41:45.945Z,202.72
2023-05-22T02:42:18.479Z,203.38
2023-05-22T02:42:51.047Z,203.28
2023-05-22T02:43:23.496Z,203.47
2023-05-22T02:43:56.030Z,202.54
2023-05-22T02:44:28.531Z,201.97
2023-05-22T02:45:01.047Z,210.00
2023-05-22T02:45:33.606Z,203.38
2023-05-22T02:46:06.151Z,202.72
2023-05-22T02:46:42.239Z,203.38
2023-05-22T02:47:14.721Z,203.28
2023-05-22T02:47:47.302Z,202.63
2023-05-22T02:48:19.867Z,203.28
2023-05-22T02:48:52.391Z,201.88
2023-05-22T02:49:24.889Z,201.97
2023-05-22T02:49:57.513Z,203.28
2023-05-22T02:50:30.031Z,203.47
2023-05-22T02:51:02.492Z,210.00
2023-05-22T02:51:35.045Z,203.47
2023-05-22T02:52:07.611Z,202.63
2023-05-22T02:52:40.117Z,203.28
2023-05-22T02:53:12.616Z,202.72
2023-05-22T02:53:45.084Z,202.72
2023-05-22T02:54:17.637Z,202.72
2023-05-22T02:54:50.203Z,210.00
2023-05-22T02:55:22.736Z,202.72
2023-05-22T02:55:55.213Z,202.72
2023-05-22T02:56:27.666Z,202.54
2023-05-22T02:57:00.146Z,201.88
2023-05-22T02:57:32.653Z,203.28
2023-05-22T02:58:05.157Z,202.72
2023-05-22T02:58:37.640Z,203.28
2023-05-22T02:59:10.141Z,203.28
2023-05-22T02:59:42.668Z,204.12
2023-05-22T03:00:15.173Z,202.63
2023-05-22T03:00:47.648Z,210.00
2023-05-22T03:01:20.122Z,203.38
2023-05-22T03:01:52.680Z,203.28
2023-05-22T03:02:25.163Z,202.72
2023-05-22T03:02:57.673Z,203.28
2023-05-22T03:03:30.257Z,201.97
2023-05-22T03:04:02.732Z,37.11
2023-05-22T03:04:35.136Z,30.00
2023-05-22T03:05:07.647Z,251.25
2023-05-22T03:05:40.168Z,255.00
2023-05-22T03:06:12.675Z,233.51
2023-05-22T03:06:45.210Z,200.83
2023-05-22T03:07:17.794Z,188.92
2023-05-22T03:07:50.307Z,202.54
2023-05-22T03:08:22.832Z,202.72
2023-05-22T03:08:55.296Z,203.28
2023-05-22T03:09:27.749Z,202.63
2023-05-22T03:10:00.229Z,202.63
2023-05-22T03:10:32.714Z,202.54
2023-05-22T03:11:05.182Z,202.63
2023-05-22T03:11:37.942Z,202.54
2023-05-22T03:12:10.456Z,202.72
2023-05-22T03:12:42.976Z,226.99
2023-05-22T03:13:15.410Z,311.91
2023-05-22T03:13:47.946Z,199.83
2023-05-22T03:14:20.418Z,202.54
2023-05-22T03:14:52.980Z,203.67
2023-05-22T03:15:25.561Z,166.67
2023-05-22T03:15:58.117Z,75.00
2023-05-22T03:16:30.588Z,75.00
2023-05-22T03:17:22.423Z,75.00
2023-05-22T03:17:54.892Z,75.00
2023-05-22T03:18:27.725Z,75.00
2023-05-22T03:18:59.913Z,103.81
2023-05-22T03:19:32.412Z,198.47
2023-05-22T03:20:04.835Z,210.00
2023-05-22T03:20:37.445Z,210.00
2023-05-22T03:21:09.824Z,210.00
2023-05-22T03:21:42.298Z,210.00
2023-05-22T03:22:14.743Z,210.00
2023-05-22T03:22:47.185Z,210.00
2023-05-22T03:23:19.660Z,210.00
2023-05-22T03:23:52.185Z,210.00
2023-05-22T03:24:24.674Z,210.00
2023-05-22T03:24:57.140Z,210.00
2023-05-22T03:25:29.719Z,210.00
2023-05-22T03:26:02.214Z,210.00
2023-05-22T03:26:34.681Z,210.00
2023-05-22T03:27:07.202Z,209.91
2023-05-22T03:27:39.732Z,210.00
2023-05-22T03:28:12.231Z,210.00
2023-05-22T03:28:44.731Z,210.00
2023-05-22T03:29:17.181Z,210.00
2023-05-22T03:29:49.687Z,208.77
2023-05-22T03:30:22.178Z,204.50
2023-05-22T03:30:54.652Z,207.51
2023-05-22T03:31:27.245Z,210.00
2023-05-22T03:31:59.668Z,210.00
2023-05-22T03:32:32.430Z,209.91
2023-05-22T03:33:05.715Z,210.00
2023-05-22T03:33:38.248Z,180.64
2023-05-22T03:34:10.699Z,188.27
2023-05-22T03:34:43.110Z,195.97
2023-05-22T03:35:15.548Z,188.27
2023-05-22T03:35:48.026Z,184.45
2023-05-22T03:36:20.487Z,203.28
2023-05-22T03:36:52.963Z,203.38
2023-05-22T03:37:25.438Z,201.23
2023-05-22T03:37:57.865Z,75.00
2023-05-22T03:38:30.377Z,75.00
2023-05-22T03:39:02.781Z,75.00
2023-05-22T03:39:35.255Z,203.28
2023-05-22T03:40:07.715Z,124.19
2023-05-22T03:40:40.272Z,75.00
2023-05-22T03:41:12.657Z,75.00
2023-05-22T03:41:45.137Z,75.00
2023-05-22T03:42:17.582Z,75.00
2023-05-22T03:42:50.091Z,75.00
2023-05-22T03:43:22.590Z,200.23
2023-05-22T03:43:55.021Z,202.72
2023-05-22T03:44:27.473Z,183.67
2023-05-22T03:44:59.931Z,180.64
2023-05-22T03:45:32.390Z,180.65
2023-05-22T03:46:04.885Z,180.65
2023-05-22T03:46:56.753Z,182.16
2023-05-22T03:47:29.214Z,180.64
2023-05-22T03:48:01.700Z,179.14
2023-05-22T03:48:34.085Z,203.91
2023-05-22T03:49:06.644Z,202.63
2023-05-22T03:49:39.029Z,202.63
2023-05-22T03:50:11.491Z,202.63
2023-05-22T03:50:43.966Z,202.63
2023-05-22T03:51:18.074Z,203.28
2023-05-22T03:51:48.860Z,202.63
2023-05-22T03:52:21.311Z,203.93
2023-05-22T03:52:53.836Z,203.28
2023-05-22T03:53:26.273Z,202.54
2023-05-22T03:53:58.746Z,202.15
2023-05-22T03:54:31.220Z,202.72
2023-05-22T03:55:03.698Z,202.63
2023-05-22T03:55:36.201Z,203.28
2023-05-22T03:56:08.613Z,203.28
2023-05-22T03:56:41.062Z,203.47
2023-05-22T03:57:13.507Z,203.19
2023-05-22T03:57:45.987Z,203.28
2023-05-22T03:58:18.477Z,202.72
2023-05-22T03:58:50.963Z,204.12
2023-05-22T03:59:23.405Z,201.04
2023-05-22T03:59:55.848Z,199.63
2023-05-22T04:00:28.359Z,202.54
2023-05-22T04:01:00.799Z,203.38
2023-05-22T04:01:33.298Z,202.63
2023-05-22T04:02:05.809Z,210.00
2023-05-22T04:02:38.373Z,202.63
2023-05-22T04:03:10.798Z,58.43
2023-05-22T04:03:43.199Z,75.00
2023-05-22T04:04:15.610Z,75.00
2023-05-22T04:04:48.218Z,75.00
2023-05-22T04:05:20.586Z,75.00
2023-05-22T04:05:53.091Z,75.00
2023-05-22T04:06:25.629Z,75.00
2023-05-22T04:06:58.193Z,75.00
2023-05-22T04:07:30.535Z,75.00
2023-05-22T04:08:03.136Z,75.00
2023-05-22T04:08:35.611Z,75.00
2023-05-22T04:09:08.150Z,75.00
2023-05-22T04:09:40.578Z,75.00
2023-05-22T04:10:13.067Z,75.00
2023-05-22T04:10:45.513Z,75.00
2023-05-22T04:11:17.961Z,75.00
2023-05-22T04:11:50.396Z,75.00
2023-05-22T04:12:22.881Z,75.00
2023-05-22T04:12:55.352Z,75.00
2023-05-22T04:13:27.801Z,75.00
2023-05-22T04:14:00.247Z,75.00
2023-05-22T04:14:32.702Z,75.00
2023-05-22T04:15:05.145Z,75.00
2023-05-22T04:15:37.664Z,75.00
2023-05-22T04:16:10.202Z,75.00
2023-05-22T04:16:42.651Z,75.00
2023-05-22T04:17:15.121Z,75.00
2023-05-22T04:17:47.630Z,75.00
2023-05-22T04:18:20.125Z,75.00
2023-05-22T04:18:52.597Z,75.00
2023-05-22T04:19:25.092Z,75.00
2023-05-22T04:19:57.482Z,75.00
2023-05-22T04:20:29.934Z,75.00
2023-05-22T04:21:02.381Z,75.00
2023-05-22T04:21:34.867Z,75.00
2023-05-22T04:22:07.312Z,75.00
2023-05-22T04:22:39.789Z,75.00
2023-05-22T04:23:12.221Z,75.00
2023-05-22T04:23:44.709Z,175.91
2023-05-22T04:24:17.139Z,182.16
2023-05-22T04:24:49.627Z,179.14
2023-05-22T04:25:22.098Z,180.64
2023-05-22T04:25:54.555Z,179.14
2023-05-22T04:26:27.029Z,179.14
2023-05-22T04:26:59.490Z,182.16
2023-05-22T04:27:31.947Z,179.13
2023-05-22T04:28:04.429Z,168.29
2023-05-22T04:28:36.887Z,75.00
2023-05-22T04:29:09.363Z,75.00
2023-05-22T04:29:41.848Z,75.00
2023-05-22T04:30:14.323Z,75.00
2023-05-22T04:30:46.772Z,75.00
2023-05-22T04:31:19.203Z,75.00
2023-05-22T04:31:51.647Z,75.00
2023-05-22T04:32:24.140Z,140.54
2023-05-22T04:32:56.618Z,75.00
2023-05-22T04:33:29.104Z,75.00
2023-05-22T04:34:01.572Z,70.08
2023-05-22T04:34:34.032Z,75.00
2023-05-22T04:35:06.487Z,75.00
2023-05-22T04:35:39.008Z,75.00
2023-05-22T04:36:12.557Z,75.00
2023-05-22T04:36:43.972Z,103.25
2023-05-22T04:37:16.411Z,75.00
2023-05-22T04:37:48.935Z,82.29
2023-05-22T04:38:21.423Z,201.74
2023-05-22T04:38:53.912Z,171.18
2023-05-22T04:39:26.469Z,74.31
2023-05-22T04:39:58.798Z,75.00
2023-05-22T04:40:31.298Z,68.17
2023-05-22T04:41:03.755Z,75.00
2023-05-22T04:41:36.211Z,75.00
2023-05-22T04:42:08.667Z,72.34
2023-05-22T04:42:41.119Z,68.86
2023-05-22T04:43:13.566Z,68.86
2023-05-22T04:43:46.105Z,69.53
2023-05-22T04:44:18.565Z,75.00
2023-05-22T04:44:51.054Z,75.00
2023-05-22T04:45:23.528Z,75.00
2023-05-22T04:45:55.975Z,75.00
2023-05-22T04:46:28.473Z,74.31
2023-05-22T04:47:00.914Z,75.00
2023-05-22T04:47:33.360Z,107.09
2023-05-22T04:48:05.867Z,189.67
2023-05-22T04:48:38.251Z,207.42
2023-05-22T04:49:10.744Z,83.21
2023-05-22T04:49:43.224Z,75.00
2023-05-22T04:50:15.694Z,75.00
2023-05-22T04:50:48.152Z,171.11
2023-05-22T04:51:20.611Z,78.85
2023-05-22T04:51:53.063Z,203.38
2023-05-22T04:52:25.585Z,202.63
2023-05-22T04:52:57.992Z,203.91
2023-05-22T04:53:30.432Z,73.68
2023-05-22T04:54:02.913Z,174.22
2023-05-22T04:54:35.387Z,180.64
2023-05-22T04:55:07.847Z,180.64
2023-05-22T04:55:40.280Z,180.65
2023-05-22T04:56:14.655Z,193.43
2023-05-22T04:56:45.172Z,201.97
2023-05-22T04:57:17.609Z,201.97
2023-05-22T04:57:50.121Z,203.38
2023-05-22T04:58:22.546Z,203.60
2023-05-22T04:58:55.037Z,73.68
2023-05-22T04:59:27.508Z,23.21
2023-05-22T04:59:59.964Z,83.81
2023-05-22T05:00:32.560Z,177.62
2023-05-22T05:01:04.938Z,94.93
2023-05-22T05:01:37.461Z,43.51
2023-05-22T05:02:09.814Z,75.00
2023-05-22T05:02:42.353Z,73.68
2023-05-22T05:03:14.795Z,63.08
2023-05-22T05:03:47.324Z,71.63
2023-05-22T05:04:19.844Z,207.25
2023-05-22T05:04:52.307Z,197.35
2023-05-22T05:05:24.775Z,38.36
2023-05-22T05:05:57.226Z,52.52
2023-05-22T05:06:29.734Z,75.00
2023-05-22T05:07:02.240Z,75.00
2023-05-22T05:07:34.698Z,75.00
2023-05-22T05:08:07.151Z,21.00
2023-05-22T05:08:39.653Z,30.00
2023-05-22T05:09:12.107Z,30.00
2023-05-22T05:09:44.590Z,30.00
2023-05-22T05:10:17.046Z,25.39
2023-05-22T05:10:49.477Z,3.25
2023-05-22T05:11:21.926Z,5.39
2023-05-22T05:11:54.354Z,42.60
2023-05-22T05:12:26.792Z,30.00
2023-05-22T05:12:59.235Z,30.00
2023-05-22T05:13:31.694Z,30.00
2023-05-22T05:14:04.194Z,64.55
2023-05-22T05:14:36.634Z,75.00
2023-05-22T05:15:09.096Z,75.00
2023-05-22T05:15:41.565Z,75.00
2023-05-22T05:16:14.042Z,70.97
2023-05-22T05:16:46.530Z,75.00
2023-05-22T05:17:18.966Z,70.25
2023-05-22T05:17:51.488Z,75.00
2023-05-22T05:18:23.937Z,75.00
2023-05-22T05:18:56.411Z,75.00
2023-05-22T05:19:28.893Z,69.58
2023-05-22T05:20:01.297Z,30.00
2023-05-22T05:20:33.776Z,30.00
2023-05-22T05:21:06.245Z,30.00
2023-05-22T05:21:38.719Z,30.00
2023-05-22T05:22:11.184Z,30.00
2023-05-22T05:22:43.625Z,30.00
2023-05-22T05:23:16.134Z,30.00
2023-05-22T05:23:48.694Z,30.00
2023-05-22T05:24:21.154Z,30.00
2023-05-22T05:24:53.586Z,30.00
2023-05-22T05:25:26.050Z,30.00
2023-05-22T05:25:58.515Z,30.00
2023-05-22T05:26:31.018Z,30.00
2023-05-22T05:27:03.511Z,30.00
2023-05-22T05:27:36.002Z,30.00
2023-05-22T05:28:08.462Z,30.00
2023-05-22T05:28:40.947Z,30.00
2023-05-22T05:29:13.393Z,30.00
2023-05-22T05:29:45.825Z,30.00
2023-05-22T05:30:20.161Z,30.00
2023-05-22T05:30:50.770Z,30.00
2023-05-22T05:31:23.238Z,30.00
2023-05-22T05:31:55.715Z,30.00
2023-05-22T05:32:28.199Z,30.00
2023-05-22T05:33:00.722Z,30.00
2023-05-22T05:33:33.131Z,30.00
2023-05-22T05:34:05.598Z,30.00
2023-05-22T05:34:38.132Z,30.00
2023-05-22T05:35:10.584Z,30.00
2023-05-22T05:35:43.227Z,30.00
2023-05-22T05:36:15.532Z,30.00
2023-05-22T05:36:48.009Z,30.00
2023-05-22T05:37:20.480Z,30.00
2023-05-22T05:37:52.978Z,30.00
2023-05-22T05:38:25.445Z,30.00
2023-05-22T05:38:57.914Z,30.00
2023-05-22T05:39:30.372Z,30.00
2023-05-22T05:40:02.841Z,30.00
2023-05-22T05:40:35.295Z,30.00
2023-05-22T05:41:07.765Z,30.00
2023-05-22T05:41:40.214Z,30.00
2023-05-22T05:42:12.692Z,30.00
2023-05-22T05:42:45.159Z,4.18
2023-05-22T05:43:17.632Z,68.23
2023-05-22T05:43:50.092Z,75.00
2023-05-22T05:44:22.634Z,75.00
2023-05-22T05:44:55.147Z,75.00
2023-05-22T05:45:27.691Z,75.00
2023-05-22T05:46:00.237Z,75.00
2023-05-22T05:46:32.680Z,75.00
2023-05-22T05:47:05.109Z,75.00
2023-05-22T05:47:37.593Z,75.00
2023-05-22T05:48:10.047Z,75.00
2023-05-22T05:48:42.478Z,75.00
2023-05-22T05:49:21.993Z,75.00
2023-05-22T05:49:54.458Z,75.00
2023-05-22T05:50:26.909Z,75.00
2023-05-22T05:50:59.362Z,75.00
2023-05-22T05:51:31.845Z,75.00
2023-05-22T05:52:04.356Z,75.00
2023-05-22T05:52:36.859Z,75.00
2023-05-22T05:53:09.277Z,75.00
2023-05-22T05:53:41.690Z,75.00
2023-05-22T05:54:14.170Z,75.00
2023-05-22T05:54:46.638Z,75.00
2023-05-22T05:55:19.055Z,75.00
2023-05-22T05:55:51.555Z,75.00
2023-05-22T05:56:24.003Z,75.00
2023-05-22T05:56:56.477Z,75.00
2023-05-22T05:57:28.922Z,75.00
2023-05-22T05:58:01.358Z,75.00
2023-05-22T05:58:33.821Z,75.00
2023-05-22T05:59:06.271Z,75.00
2023-05-22T05:59:38.708Z,75.00
2023-05-22T06:00:11.137Z,75.00
2023-05-22T06:00:43.601Z,75.00
2023-05-22T06:01:16.084Z,76.91
2023-05-22T06:01:48.523Z,192.88
2023-05-22T06:02:21.017Z,204.58
2023-05-22T06:02:53.516Z,210.00
2023-05-22T06:03:25.998Z,210.00
2023-05-22T06:03:58.505Z,210.00
2023-05-22T06:04:30.844Z,210.00
2023-05-22T06:05:03.486Z,210.00
2023-05-22T06:05:35.825Z,210.00
2023-05-22T06:06:08.175Z,210.00
2023-05-22T06:06:40.615Z,210.00
2023-05-22T06:07:13.035Z,210.00
2023-05-22T06:07:45.461Z,210.00
2023-05-22T06:08:17.917Z,210.00
2023-05-22T06:08:50.379Z,210.00
2023-05-22T06:09:22.833Z,138.05
2023-05-22T06:09:55.343Z,31.32
2023-05-22T06:10:27.789Z,30.00
2023-05-22T06:11:00.253Z,30.00
2023-05-22T06:11:32.717Z,36.62
2023-05-22T06:12:05.199Z,44.14
2023-05-22T06:12:37.623Z,60.11
2023-05-22T06:13:10.139Z,328.44
2023-05-22T06:13:42.597Z,293.58
2023-05-22T06:14:15.047Z,78.95
2023-05-22T06:14:47.477Z,159.56
2023-05-22T06:15:19.904Z,83.43
2023-05-22T06:15:52.439Z,103.81
2023-05-22T06:16:24.888Z,178.61
2023-05-22T06:16:57.359Z,192.08
2023-05-22T06:17:29.855Z,203.06
2023-05-22T06:18:02.303Z,92.07
2023-05-22T06:18:34.723Z,80.33
2023-05-22T06:19:07.267Z,255.00
2023-05-22T06:19:39.691Z,255.00
2023-05-22T06:20:12.177Z,255.00
2023-05-22T06:20:44.651Z,244.21
2023-05-22T06:21:17.076Z,199.15
2023-05-22T06:21:50.812Z,135.31
2023-05-22T06:22:21.996Z,60.86
2023-05-22T06:22:54.495Z,72.27
2023-05-22T06:23:26.970Z,105.89
2023-05-22T06:23:59.456Z,166.27
2023-05-22T06:24:31.942Z,129.74
2023-05-22T06:25:04.409Z,50.20
2023-05-22T06:25:36.814Z,113.84
2023-05-22T06:26:09.243Z,21.80
2023-05-22T06:26:41.688Z,36.35
2023-05-22T06:27:14.135Z,109.05
2023-05-22T06:27:46.549Z,105.39
2023-05-22T06:28:18.996Z,75.00
2023-05-22T06:28:51.432Z,75.00
2023-05-22T06:29:23.877Z,101.98
2023-05-22T06:29:56.632Z,201.88
2023-05-22T06:30:39.697Z,28.69
2023-05-22T06:31:01.170Z,30.00
2023-05-22T06:31:33.614Z,30.00
2023-05-22T06:32:06.091Z,30.00
2023-05-22T06:32:38.707Z,30.00
2023-05-22T06:33:10.987Z,30.00
2023-05-22T06:33:43.617Z,30.00
2023-05-22T06:34:15.958Z,41.17
2023-05-22T06:34:48.263Z,75.00
2023-05-22T06:35:20.724Z,45.64
2023-05-22T06:35:53.146Z,30.00
2023-05-22T06:36:25.620Z,145.35
2023-05-22T06:36:58.073Z,41.12
2023-05-22T06:37:30.541Z,90.39
2023-05-22T06:38:03.009Z,34.11
2023-05-22T06:38:35.456Z,66.74
2023-05-22T06:39:07.907Z,75.00
2023-05-22T06:39:40.403Z,72.87
2023-05-22T06:40:12.842Z,177.21
2023-05-22T06:40:45.329Z,188.42
2023-05-22T06:41:17.804Z,189.11
2023-05-22T06:41:50.312Z,165.00
2023-05-22T06:42:22.779Z,169.03
2023-05-22T06:42:55.261Z,89.87
2023-05-22T06:43:27.726Z,75.00
2023-05-22T06:44:00.192Z,36.83
2023-05-22T06:44:32.608Z,44.14
2023-05-22T06:45:05.047Z,51.73
2023-05-22T06:45:37.693Z,30.00
2023-05-22T06:46:10.021Z,37.54
2023-05-22T06:46:42.482Z,97.20
2023-05-22T06:47:14.945Z,133.37
2023-05-22T06:47:47.463Z,75.00
2023-05-22T06:48:19.857Z,75.00
2023-05-22T06:48:52.302Z,62.35
2023-05-22T06:49:24.757Z,70.97
2023-05-22T06:49:57.209Z,75.00
2023-05-22T06:50:29.664Z,75.00
2023-05-22T06:51:02.145Z,125.53